createdAt,value
2022-08-26T00:01:52.873Z,19.30
2022-08-26T00:04:21.910Z,19.20
2022-08-26T00:06:49.173Z,19.10
2022-08-26T00:09:16.872Z,19.10
2022-08-26T00:11:47.323Z,19.00
2022-08-26T00:14:16.457Z,19.00
2022-08-26T00:16:47.597Z,19.10
2022-08-26T00:19:21.400Z,19.10
2022-08-26T00:21:49.900Z,19.10
2022-08-26T00:24:19.824Z,19.00
2022-08-26T00:26:47.701Z,19.00
2022-08-26T00:29:15.175Z,19.00
2022-08-26T00:31:42.598Z,19.00
2022-08-26T00:34:12.480Z,18.90
2022-08-26T00:36:41.120Z,18.80
2022-08-26T00:39:08.962Z,18.70
2022-08-26T00:41:39.966Z,18.60
2022-08-26T00:44:08.259Z,18.60
2022-08-26T00:46:40.532Z,18.60
2022-08-26T00:49:18.119Z,18.50
2022-08-26T00:51:52.538Z,18.40
2022-08-26T00:54:22.993Z,18.30
2022-08-26T00:57:00.212Z,18.30
2022-08-26T00:59:29.325Z,18.30
2022-08-26T01:02:02.545Z,18.40
2022-08-26T01:04:31.492Z,18.30
2022-08-26T01:07:00.061Z,18.30
2022-08-26T01:09:27.621Z,18.30
2022-08-26T01:11:57.678Z,18.30
2022-08-26T01:14:30.124Z,18.30
2022-08-26T01:16:57.497Z,18.20
2022-08-26T01:19:36.267Z,18.10
2022-08-26T01:22:28.905Z,18.10
2022-08-26T01:24:58.747Z,18.10
2022-08-26T01:27:27.463Z,18.10
2022-08-26T01:30:01.724Z,18.10
2022-08-26T01:32:31.675Z,18.10
2022-08-26T01:34:59.186Z,18.00
2022-08-26T01:37:32.766Z,18.00
2022-08-26T01:40:00.163Z,17.90
2022-08-26T01:42:27.588Z,17.90
2022-08-26T01:45:05.894Z,17.80
2022-08-26T01:47:36.428Z,17.80
2022-08-26T01:50:09.585Z,17.80
2022-08-26T01:52:40.655Z,17.80
2022-08-26T01:55:12.222Z,17.80
2022-08-26T01:57:40.495Z,17.80
2022-08-26T02:00:13.554Z,17.70
2022-08-26T02:02:46.551Z,17.70
2022-08-26T02:05:20.091Z,17.70
2022-08-26T02:07:48.949Z,17.60
2022-08-26T02:10:16.421Z,17.60
2022-08-26T02:12:46.681Z,17.60
2022-08-26T02:15:13.992Z,17.70
2022-08-26T02:17:45.507Z,17.60
2022-08-26T02:20:16.702Z,17.60
2022-08-26T02:22:45.156Z,17.60
2022-08-26T02:25:20.869Z,17.60
2022-08-26T02:27:48.480Z,17.70
2022-08-26T02:30:22.813Z,17.60
2022-08-26T02:32:51.890Z,17.60
2022-08-26T02:35:21.422Z,17.50
2022-08-26T02:37:50.137Z,17.60
2022-08-26T02:40:22.708Z,17.50
2022-08-26T02:42:50.351Z,17.60
2022-08-26T02:45:23.088Z,17.50
2022-08-26T02:47:51.904Z,17.50
2022-08-26T02:50:20.083Z,17.50
2022-08-26T02:52:48.588Z,17.50
2022-08-26T02:55:16.025Z,17.40
2022-08-26T02:57:43.334Z,17.30
2022-08-26T03:00:14.679Z,17.30
2022-08-26T03:02:42.103Z,17.10
2022-08-26T03:05:09.796Z,17.10
2022-08-26T03:07:37.047Z,17.10
2022-08-26T03:10:06.884Z,17.10
2022-08-26T03:12:37.144Z,17.00
2022-08-26T03:15:17.776Z,17.00
2022-08-26T03:17:47.706Z,17.00
2022-08-26T03:20:17.500Z,17.10
2022-08-26T03:22:45.615Z,17.10
2022-08-26T03:25:16.252Z,17.20
2022-08-26T03:27:43.587Z,17.10
2022-08-26T03:30:30.714Z,17.10
2022-08-26T03:32:58.153Z,16.90
2022-08-26T03:35:25.995Z,16.90
2022-08-26T03:37:53.781Z,16.90
2022-08-26T03:40:22.385Z,16.90
2022-08-26T03:42:50.101Z,16.90
2022-08-26T03:45:18.278Z,16.90
2022-08-26T03:47:46.820Z,16.90
2022-08-26T03:50:22.822Z,16.90
2022-08-26T03:52:51.672Z,17.00
2022-08-26T03:55:20.475Z,17.00
2022-08-26T03:57:51.377Z,17.00
2022-08-26T04:00:19.241Z,17.00
2022-08-26T04:02:48.948Z,16.90
2022-08-26T04:05:17.817Z,17.00
2022-08-26T04:07:46.821Z,17.00
2022-08-26T04:10:20.286Z,17.00
2022-08-26T04:12:47.801Z,17.00
2022-08-26T04:15:16.254Z,16.90
2022-08-26T04:17:45.354Z,16.90
2022-08-26T04:20:16.272Z,16.90
2022-08-26T04:22:43.562Z,16.90
2022-08-26T04:25:11.586Z,16.80
2022-08-26T04:27:39.010Z,16.80
2022-08-26T04:30:09.162Z,16.80
2022-08-26T04:32:37.140Z,16.70
2022-08-26T04:35:05.392Z,16.70
2022-08-26T04:37:33.749Z,16.60
2022-08-26T04:40:01.180Z,16.60
2022-08-26T04:42:29.461Z,16.50
2022-08-26T04:44:56.577Z,16.50
2022-08-26T04:47:23.575Z,16.60
2022-08-26T04:49:54.622Z,16.60
2022-08-26T04:52:21.632Z,16.70
2022-08-26T04:54:49.790Z,16.80
2022-08-26T04:57:16.816Z,16.80
2022-08-26T04:59:43.789Z,16.80
2022-08-26T05:02:11.692Z,16.90
2022-08-26T05:04:38.774Z,17.00
2022-08-26T05:07:06.396Z,17.10
2022-08-26T05:09:33.430Z,17.10
2022-08-26T05:12:00.492Z,17.20
2022-08-26T05:14:28.088Z,17.30
2022-08-26T05:16:56.328Z,17.40
2022-08-26T05:19:23.885Z,17.50
2022-08-26T05:21:51.228Z,17.60
2022-08-26T05:24:18.709Z,17.80
2022-08-26T05:26:48.130Z,18.00
2022-08-26T05:29:15.628Z,18.10
2022-08-26T05:31:44.354Z,18.20
2022-08-26T05:34:11.346Z,18.30
2022-08-26T05:36:39.146Z,18.40
2022-08-26T05:39:07.600Z,18.50
2022-08-26T05:41:44.720Z,18.70
2022-08-26T05:44:15.107Z,19.20
2022-08-26T05:46:44.895Z,21.00
2022-08-26T05:49:14.325Z,23.00
2022-08-26T05:51:45.329Z,24.90
2022-08-26T05:54:14.087Z,26.50
2022-08-26T05:56:49.200Z,27.50
2022-08-26T05:59:16.608Z,28.20
2022-08-26T06:01:49.538Z,29.00
2022-08-26T06:04:17.368Z,29.50
2022-08-26T06:06:47.278Z,30.10
2022-08-26T06:09:14.681Z,30.90
2022-08-26T06:11:44.603Z,31.70
2022-08-26T06:14:11.805Z,32.10
2022-08-26T06:16:43.893Z,32.70
2022-08-26T06:19:13.465Z,33.00
2022-08-26T06:21:42.670Z,33.40
2022-08-26T06:24:32.218Z,33.70
2022-08-26T06:27:02.365Z,34.10
2022-08-26T06:29:31.782Z,34.10
2022-08-26T06:31:59.484Z,33.90
2022-08-26T06:34:30.810Z,33.80
2022-08-26T06:37:01.977Z,33.60
2022-08-26T06:39:31.199Z,33.50
2022-08-26T06:41:59.765Z,33.80
2022-08-26T06:44:27.314Z,34.60
2022-08-26T06:46:54.699Z,34.70
2022-08-26T06:49:26.659Z,35.00
2022-08-26T06:51:58.619Z,35.30
2022-08-26T06:54:27.036Z,35.80
2022-08-26T06:56:57.032Z,35.90
2022-08-26T06:59:24.952Z,36.10
2022-08-26T07:01:52.428Z,36.40
2022-08-26T07:04:22.451Z,36.50
2022-08-26T07:06:52.762Z,36.80
2022-08-26T07:09:22.772Z,35.90
2022-08-26T07:11:51.470Z,34.70
2022-08-26T07:14:21.556Z,33.80
2022-08-26T07:16:50.181Z,33.10
2022-08-26T07:19:30.167Z,32.90
2022-08-26T07:22:03.899Z,32.70
2022-08-26T07:24:32.392Z,32.60
2022-08-26T07:27:05.595Z,32.10
2022-08-26T07:29:33.780Z,31.30
2022-08-26T07:32:01.283Z,31.10
2022-08-26T07:34:29.046Z,31.80
2022-08-26T07:36:57.210Z,33.00
2022-08-26T07:39:26.418Z,33.00
2022-08-26T07:41:54.145Z,32.70
2022-08-26T07:44:21.413Z,32.40
2022-08-26T07:46:53.044Z,32.00
2022-08-26T07:49:25.227Z,31.70
2022-08-26T07:51:53.409Z,31.30
2022-08-26T07:54:21.023Z,31.10
2022-08-26T07:56:54.792Z,30.80
2022-08-26T07:59:23.455Z,30.30
2022-08-26T08:01:50.698Z,30.20
2022-08-26T08:04:25.511Z,29.90
2022-08-26T08:06:54.132Z,29.90
2022-08-26T08:09:22.340Z,29.80
2022-08-26T08:11:50.020Z,30.10
2022-08-26T08:14:18.671Z,30.50
2022-08-26T08:16:51.260Z,31.00
2022-08-26T08:19:23.814Z,30.70
2022-08-26T08:21:51.679Z,30.40
2022-08-26T08:24:19.463Z,30.50
2022-08-26T08:26:47.772Z,30.30
2022-08-26T08:29:14.773Z,30.20
2022-08-26T08:31:58.301Z,29.90
2022-08-26T08:34:28.547Z,29.50
2022-08-26T08:36:57.476Z,29.30
2022-08-26T08:39:25.435Z,29.30
2022-08-26T08:42:16.201Z,29.60
2022-08-26T08:44:51.899Z,29.50
2022-08-26T08:47:34.341Z,29.50
2022-08-26T08:50:20.571Z,29.60
2022-08-26T08:52:57.170Z,29.70
2022-08-26T08:55:29.201Z,29.70
2022-08-26T08:58:10.322Z,29.90
2022-08-26T09:01:00.331Z,30.40
2022-08-26T09:04:05.473Z,30.80
2022-08-26T09:06:32.775Z,31.30
2022-08-26T09:09:03.215Z,31.40
2022-08-26T09:11:31.214Z,31.40
2022-08-26T09:14:00.445Z,31.50
2022-08-26T09:17:08.730Z,31.30
2022-08-26T09:19:46.160Z,31.20
2022-08-26T09:22:31.776Z,31.30
2022-08-26T09:24:59.290Z,30.90
2022-08-26T09:27:50.865Z,31.00
2022-08-26T09:30:35.017Z,31.10
2022-08-26T09:33:10.880Z,31.30
2022-08-26T09:35:39.648Z,31.40
2022-08-26T09:38:26.910Z,31.60
2022-08-26T09:41:05.083Z,31.90
2022-08-26T09:43:33.101Z,32.20
2022-08-26T09:46:23.383Z,32.40
2022-08-26T09:48:51.747Z,32.70
2022-08-26T09:51:28.691Z,32.60
2022-08-26T09:54:01.946Z,32.40
2022-08-26T09:56:34.474Z,32.30
2022-08-26T09:59:02.487Z,32.50
2022-08-26T10:01:42.096Z,32.90
2022-08-26T10:04:30.881Z,33.30
2022-08-26T10:07:03.965Z,33.10
2022-08-26T10:09:36.592Z,33.10
2022-08-26T10:12:10.864Z,33.10
2022-08-26T10:14:51.484Z,33.10
2022-08-26T10:17:40.264Z,33.30
2022-08-26T10:20:38.273Z,33.80
2022-08-26T10:23:17.139Z,34.10
2022-08-26T10:25:53.803Z,34.10
2022-08-26T10:28:57.241Z,34.10
2022-08-26T10:31:43.220Z,34.10
2022-08-26T10:34:13.976Z,33.80
2022-08-26T10:37:14.990Z,34.20
2022-08-26T10:40:07.697Z,34.60
2022-08-26T10:43:10.913Z,34.90
2022-08-26T10:45:47.723Z,34.60
2022-08-26T10:48:35.499Z,33.80
2022-08-26T10:51:04.298Z,33.30
2022-08-26T10:54:17.606Z,33.70
2022-08-26T10:57:16.041Z,33.20
2022-08-26T10:59:56.579Z,33.20
2022-08-26T11:02:47.052Z,32.90
2022-08-26T11:05:23.569Z,33.10
2022-08-26T11:08:13.987Z,33.50
2022-08-26T11:10:43.710Z,33.50
2022-08-26T11:13:12.166Z,33.20
2022-08-26T11:15:39.133Z,32.50
2022-08-26T11:18:11.102Z,31.40
2022-08-26T11:20:47.539Z,30.50
2022-08-26T11:23:23.806Z,29.80
2022-08-26T11:25:57.435Z,29.30
2022-08-26T11:28:44.886Z,29.10
2022-08-26T11:31:27.192Z,29.00
2022-08-26T11:34:02.649Z,28.90
2022-08-26T11:36:45.851Z,28.70
2022-08-26T11:39:29.546Z,28.70
2022-08-26T11:42:20.204Z,28.60
2022-08-26T11:44:49.555Z,28.70
2022-08-26T11:47:25.389Z,28.90
2022-08-26T11:50:11.675Z,29.00
2022-08-26T11:52:38.703Z,29.10
2022-08-26T11:55:15.593Z,28.50
2022-08-26T11:57:46.915Z,28.00
2022-08-26T12:00:34.565Z,27.30
2022-08-26T12:03:07.830Z,26.40
2022-08-26T12:05:42.464Z,25.50
2022-08-26T12:08:16.584Z,25.00
2022-08-26T12:10:44.075Z,24.90
2022-08-26T12:13:26.396Z,24.80
2022-08-26T12:15:59.987Z,24.80
2022-08-26T12:18:35.195Z,24.90
2022-08-26T12:21:13.503Z,25.10
2022-08-26T12:23:44.894Z,25.40
2022-08-26T12:26:23.310Z,25.60
2022-08-26T12:29:20.362Z,25.70
2022-08-26T12:32:07.982Z,25.90
2022-08-26T12:34:35.352Z,26.10
2022-08-26T12:37:03.942Z,26.20
2022-08-26T12:39:37.049Z,26.30
2022-08-26T12:42:15.969Z,26.40
2022-08-26T12:44:54.324Z,26.40
2022-08-26T12:47:44.205Z,26.40
2022-08-26T12:50:17.682Z,26.40
2022-08-26T12:52:57.430Z,26.40
2022-08-26T12:55:39.788Z,26.40
2022-08-26T12:58:22.984Z,26.60
2022-08-26T13:01:04.233Z,26.70
2022-08-26T13:03:40.341Z,26.60
2022-08-26T13:06:24.055Z,26.40
2022-08-26T13:08:57.744Z,26.40
2022-08-26T13:11:26.725Z,26.40
2022-08-26T13:13:58.479Z,26.40
2022-08-26T13:16:29.470Z,26.40
2022-08-26T13:18:59.463Z,26.50
2022-08-26T13:21:29.310Z,26.60
2022-08-26T13:24:07.211Z,26.50
2022-08-26T13:26:35.408Z,26.50
2022-08-26T13:29:03.011Z,26.40
2022-08-26T13:31:39.462Z,26.40
2022-08-26T13:34:09.713Z,26.30
2022-08-26T13:36:36.769Z,26.30
2022-08-26T13:39:04.942Z,26.30
2022-08-26T13:41:32.525Z,26.40
2022-08-26T13:43:59.809Z,26.60
2022-08-26T13:46:27.953Z,26.80
2022-08-26T13:48:56.189Z,27.00
2022-08-26T13:51:26.998Z,27.40
2022-08-26T13:53:54.749Z,27.70
2022-08-26T13:56:27.747Z,28.10
2022-08-26T13:58:54.789Z,28.60
2022-08-26T14:01:24.612Z,29.00
2022-08-26T14:03:51.833Z,29.40
2022-08-26T14:06:19.503Z,29.70
2022-08-26T14:08:47.039Z,30.00
2022-08-26T14:11:14.319Z,30.30
2022-08-26T14:13:41.325Z,30.60
2022-08-26T14:16:13.372Z,30.70
2022-08-26T14:18:44.395Z,31.00
2022-08-26T14:21:14.623Z,31.10
2022-08-26T14:23:41.714Z,31.20
2022-08-26T14:26:11.693Z,31.30
2022-08-26T14:28:55.522Z,31.20
2022-08-26T14:31:23.916Z,31.30
2022-08-26T14:33:51.009Z,31.30
2022-08-26T14:36:31.466Z,31.50
2022-08-26T14:39:11.785Z,31.60
2022-08-26T14:41:45.049Z,31.60
2022-08-26T14:44:16.752Z,31.50
2022-08-26T14:46:51.185Z,31.50
2022-08-26T14:49:19.661Z,31.60
2022-08-26T14:51:47.188Z,31.60
2022-08-26T14:54:16.255Z,31.60
2022-08-26T14:56:55.146Z,31.60
2022-08-26T14:59:25.765Z,31.60
2022-08-26T15:01:54.557Z,31.60
2022-08-26T15:04:22.398Z,31.80
2022-08-26T15:06:50.042Z,31.80
2022-08-26T15:09:17.423Z,31.80
2022-08-26T15:11:44.847Z,32.00
2022-08-26T15:14:19.881Z,32.00
2022-08-26T15:16:48.655Z,32.10
2022-08-26T15:19:16.589Z,32.10
2022-08-26T15:21:45.496Z,32.10
2022-08-26T15:24:15.926Z,32.20
2022-08-26T15:26:44.755Z,32.10
2022-08-26T15:29:11.897Z,32.20
2022-08-26T15:31:41.238Z,32.30
2022-08-26T15:34:14.598Z,32.50
2022-08-26T15:36:45.796Z,32.60
2022-08-26T15:39:13.651Z,32.70
2022-08-26T15:41:41.280Z,32.70
2022-08-26T15:44:09.667Z,32.30
2022-08-26T15:46:37.525Z,31.50
2022-08-26T15:49:06.270Z,30.60
2022-08-26T15:51:45.624Z,29.50
2022-08-26T15:54:14.449Z,28.60
2022-08-26T15:56:47.339Z,27.40
2022-08-26T15:59:16.685Z,26.60
2022-08-26T16:01:46.588Z,26.10
2022-08-26T16:04:14.332Z,25.40
2022-08-26T16:06:43.609Z,25.00
2022-08-26T16:09:11.024Z,24.70
2022-08-26T16:11:38.201Z,24.20
2022-08-26T16:14:07.875Z,24.00
2022-08-26T16:16:39.373Z,23.60
2022-08-26T16:19:07.857Z,23.50
2022-08-26T16:21:35.908Z,23.60
2022-08-26T16:24:04.127Z,23.60
2022-08-26T16:26:34.212Z,23.60
2022-08-26T16:29:05.738Z,23.50
2022-08-26T16:31:32.982Z,23.20
2022-08-26T16:34:02.723Z,23.10
2022-08-26T16:36:29.941Z,22.80
2022-08-26T16:38:58.193Z,22.80
2022-08-26T16:41:31.325Z,22.70
2022-08-26T16:43:58.896Z,22.70
2022-08-26T16:46:27.237Z,22.60
2022-08-26T16:48:56.449Z,22.60
2022-08-26T16:51:29.569Z,22.40
2022-08-26T16:53:57.569Z,22.30
2022-08-26T16:56:30.614Z,22.40
2022-08-26T16:59:02.784Z,22.50
2022-08-26T17:01:32.877Z,22.50
2022-08-26T17:04:00.072Z,22.50
2022-08-26T17:06:27.227Z,22.30
2022-08-26T17:08:54.334Z,22.10
2022-08-26T17:11:21.317Z,22.00
2022-08-26T17:13:48.286Z,22.00
2022-08-26T17:16:26.467Z,22.00
2022-08-26T17:18:55.928Z,22.00
2022-08-26T17:21:23.072Z,22.20
2022-08-26T17:23:50.288Z,22.40
2022-08-26T17:26:17.687Z,22.50
2022-08-26T17:28:44.685Z,22.50
2022-08-26T17:31:13.255Z,22.50
2022-08-26T17:33:41.722Z,22.60
2022-08-26T17:36:09.944Z,22.60
2022-08-26T17:38:38.113Z,22.70
2022-08-26T17:41:12.952Z,22.70
2022-08-26T17:43:40.577Z,22.70
2022-08-26T17:46:09.680Z,22.70
2022-08-26T17:48:38.188Z,22.50
2022-08-26T17:51:14.260Z,22.50
2022-08-26T17:53:42.049Z,22.50
2022-08-26T17:56:12.592Z,22.40
2022-08-26T17:58:40.668Z,22.30
2022-08-26T18:01:15.641Z,22.30
2022-08-26T18:03:43.253Z,22.30
2022-08-26T18:06:12.265Z,22.20
2022-08-26T18:08:40.960Z,22.10
2022-08-26T18:11:20.425Z,22.10
2022-08-26T18:13:47.915Z,22.00
2022-08-26T18:16:16.863Z,22.00
2022-08-26T18:18:44.834Z,21.90
2022-08-26T18:21:14.527Z,21.80
2022-08-26T18:23:42.283Z,21.70
2022-08-26T18:26:09.435Z,21.60
2022-08-26T18:28:39.644Z,21.60
2022-08-26T18:31:08.642Z,21.60
2022-08-26T18:33:35.706Z,21.70
2022-08-26T18:36:04.617Z,21.70
2022-08-26T18:38:31.857Z,21.70
2022-08-26T18:41:04.264Z,21.80
2022-08-26T18:43:31.430Z,21.70
2022-08-26T18:46:14.102Z,21.70
2022-08-26T18:48:43.425Z,21.70
2022-08-26T18:51:21.872Z,21.70
2022-08-26T18:53:50.837Z,21.60
2022-08-26T18:56:18.873Z,21.60
2022-08-26T18:58:58.502Z,21.70
2022-08-26T19:01:27.723Z,21.70
2022-08-26T19:03:59.595Z,21.70
2022-08-26T19:06:28.707Z,21.70
2022-08-26T19:08:55.869Z,21.60
2022-08-26T19:11:32.401Z,21.60
2022-08-26T19:14:10.017Z,21.60
2022-08-26T19:16:37.708Z,21.60
2022-08-26T19:19:05.705Z,21.60
2022-08-26T19:21:34.404Z,21.60
2022-08-26T19:24:03.111Z,21.60
2022-08-26T19:26:31.909Z,21.50
2022-08-26T19:28:59.475Z,21.60
2022-08-26T19:31:27.156Z,21.50
2022-08-26T19:33:54.319Z,21.50
2022-08-26T19:36:24.014Z,21.50
2022-08-26T19:38:52.006Z,21.50
2022-08-26T19:41:26.597Z,21.40
2022-08-26T19:44:35.304Z,21.30
2022-08-26T19:47:03.832Z,21.20
2022-08-26T19:49:31.600Z,21.20
2022-08-26T19:51:59.013Z,21.10
2022-08-26T19:54:36.247Z,21.10
2022-08-26T19:57:04.397Z,21.10
2022-08-26T19:59:33.140Z,21.10
2022-08-26T20:05:48.960Z,21.10
2022-08-26T20:08:22.470Z,21.10
2022-08-26T20:10:50.160Z,21.10
2022-08-26T20:13:18.587Z,21.00
2022-08-26T20:15:45.607Z,20.90
2022-08-26T20:18:36.910Z,20.90
2022-08-26T20:24:17.384Z,20.80
2022-08-26T20:27:08.160Z,20.60
2022-08-26T20:29:36.521Z,20.50
2022-08-26T20:32:05.999Z,20.40
2022-08-26T20:34:52.433Z,20.30
2022-08-26T20:37:21.642Z,20.20
2022-08-26T20:39:49.250Z,20.20
2022-08-26T20:42:20.002Z,20.10
2022-08-26T20:44:54.352Z,20.00
2022-08-26T20:47:23.296Z,19.90
2022-08-26T20:49:52.535Z,19.90
2022-08-26T20:52:20.404Z,19.90
2022-08-26T20:54:47.370Z,19.90
2022-08-26T20:57:16.401Z,19.90
2022-08-26T20:59:43.675Z,19.80
2022-08-26T21:02:10.807Z,19.90
2022-08-26T21:04:37.870Z,19.90
2022-08-26T21:07:04.952Z,19.80
2022-08-26T21:09:33.021Z,19.80
2022-08-26T21:12:00.023Z,19.80
2022-08-26T21:14:27.163Z,19.90
2022-08-26T21:16:54.809Z,19.90
2022-08-26T21:19:22.102Z,19.90
2022-08-26T21:21:49.599Z,19.90
2022-08-26T21:24:16.743Z,19.90
2022-08-26T21:26:43.927Z,19.90
2022-08-26T21:29:10.972Z,19.80
2022-08-26T21:31:46.689Z,19.80
2022-08-26T21:34:16.459Z,19.80
2022-08-26T21:36:44.201Z,19.70
2022-08-26T21:39:12.385Z,19.70
2022-08-26T21:41:40.994Z,19.70
2022-08-26T21:44:15.416Z,19.70
2022-08-26T21:46:43.636Z,19.70
2022-08-26T21:49:12.956Z,19.70
2022-08-26T21:52:04.610Z,19.70
2022-08-26T21:55:20.185Z,19.70
2022-08-26T21:57:47.143Z,19.70
2022-08-26T22:00:16.340Z,19.70
2022-08-26T22:02:43.520Z,19.70
2022-08-26T22:05:10.887Z,19.70
2022-08-26T22:07:37.916Z,19.70
2022-08-26T22:10:06.376Z,19.70
2022-08-26T22:12:33.337Z,19.70
2022-08-26T22:15:00.544Z,19.70
2022-08-26T22:17:28.429Z,19.70
2022-08-26T22:19:56.610Z,19.70
2022-08-26T22:22:25.504Z,19.60
2022-08-26T22:24:52.607Z,19.60
2022-08-26T22:27:19.595Z,19.60
2022-08-26T22:29:52.807Z,19.60
2022-08-26T22:32:19.801Z,19.60
2022-08-26T22:34:46.900Z,19.60
2022-08-26T22:37:20.285Z,19.70
2022-08-26T22:39:47.222Z,19.60
2022-08-26T22:42:14.217Z,19.70
2022-08-26T22:44:41.743Z,19.60
2022-08-26T22:47:08.724Z,19.60
2022-08-26T22:49:35.686Z,19.60
2022-08-26T22:52:03.024Z,19.60
2022-08-26T22:54:29.981Z,19.60
2022-08-26T22:56:57.011Z,19.60
2022-08-26T23:00:03.182Z,19.70
2022-08-26T23:02:30.259Z,19.70
2022-08-26T23:04:57.227Z,19.70
2022-08-26T23:07:25.351Z,19.60
2022-08-26T23:09:52.355Z,19.70
2022-08-26T23:12:19.353Z,19.70
2022-08-26T23:15:21.740Z,19.60
2022-08-26T23:17:55.884Z,19.60
2022-08-26T23:20:27.797Z,19.60
2022-08-26T23:23:36.188Z,19.50
2022-08-26T23:26:06.093Z,19.50
2022-08-26T23:28:34.630Z,19.40
2022-08-26T23:31:57.215Z,19.40
2022-08-26T23:37:31.607Z,19.40
2022-08-26T23:43:40.368Z,19.40
2022-08-26T23:46:07.518Z,19.30
2022-08-26T23:48:34.536Z,19.20
2022-08-26T23:52:08.621Z,19.20
2022-08-26T23:54:35.643Z,19.20
2022-08-26T23:57:02.651Z,19.10
2022-08-26T23:59:39.513Z,19.10
